Time;durP1;ratioP1;P1;durP2;ratioP2;P2;SDS_P1;SDS_P2;PMS_P1;PMS_P2;Temp;Humidity;BMP_temperature;BMP_pressure;BME280_temperature;BME280_humidity;BME280_pressure;Samples;Min_cycle;Max_cycle;Signal;HPM_P1;HPM_P2
2023/03/20 00:00:43;;;;;;;;;;;24.10;99.90;;;;;;5053995;28;20304;-68
2023/03/20 00:03:13;;;;;;;;;;;24.00;99.90;;;;;;5060375;28;19913;-69
2023/03/20 00:05:40;;;;;;;;;;;24.00;99.90;;;;;;5060235;28;19959;-69
2023/03/20 00:08:07;;;;;;;;;;;24.10;99.90;;;;;;5059343;28;20088;-69
2023/03/20 00:10:37;;;;;;;;;;;24.10;99.90;;;;;;5048074;28;19917;-70
2023/03/20 00:13:04;;;;;;;;;;;24.00;99.90;;;;;;5040293;28;19908;-70
2023/03/20 00:15:33;;;;;;;;;;;23.80;99.90;;;;;;5040774;28;19909;-69
2023/03/20 00:17:59;;;;;;;;;;;23.70;99.90;;;;;;5040488;28;20026;-68
2023/03/20 00:20:26;;;;;;;;;;;23.60;99.90;;;;;;5039790;28;19992;-70
2023/03/20 00:22:53;;;;;;;;;;;23.50;99.90;;;;;;5039987;28;19908;-68
2023/03/20 00:25:21;;;;;;;;;;;23.30;99.90;;;;;;5040406;28;19931;-69
2023/03/20 00:27:48;;;;;;;;;;;23.30;99.90;;;;;;5040469;28;19915;-68
2023/03/20 00:30:14;;;;;;;;;;;23.30;99.90;;;;;;5039626;28;20250;-68
2023/03/20 00:32:41;;;;;;;;;;;23.10;99.90;;;;;;5040457;28;19909;-67
2023/03/20 00:35:16;;;;;;;;;;;23.00;99.90;;;;;;5039963;28;19909;-68
2023/03/20 00:37:42;;;;;;;;;;;22.90;99.90;;;;;;5040132;28;19913;-69
2023/03/20 00:40:10;;;;;;;;;;;22.90;99.90;;;;;;5048347;28;20116;-67
2023/03/20 00:42:36;;;;;;;;;;;22.90;99.90;;;;;;5059173;28;19909;-71
2023/03/20 00:45:04;;;;;;;;;;;22.90;99.90;;;;;;5059401;28;19912;-67
2023/03/20 00:47:32;;;;;;;;;;;22.90;99.90;;;;;;5059799;28;19939;-70
2023/03/20 00:49:58;;;;;;;;;;;22.80;99.90;;;;;;5051498;28;20015;-70
2023/03/20 00:52:25;;;;;;;;;;;22.80;99.90;;;;;;5040080;28;19920;-68
2023/03/20 00:54:52;;;;;;;;;;;22.80;99.90;;;;;;5039688;28;20279;-69
2023/03/20 00:57:23;;;;;;;;;;;22.80;99.90;;;;;;5038014;28;19912;-69
2023/03/20 00:59:53;;;;;;;;;;;22.70;99.90;;;;;;5039696;28;19909;-68
2023/03/20 01:02:21;;;;;;;;;;;22.50;99.90;;;;;;5039440;28;19916;-68
2023/03/20 01:04:47;;;;;;;;;;;22.50;99.90;;;;;;5039352;28;20143;-69
2023/03/20 01:07:15;;;;;;;;;;;22.50;99.90;;;;;;5039160;28;19909;-69
2023/03/20 01:09:41;;;;;;;;;;;22.60;99.90;;;;;;5044928;28;19912;-71
2023/03/20 01:12:10;;;;;;;;;;;22.70;99.90;;;;;;5059357;28;20353;-68
2023/03/20 01:14:37;;;;;;;;;;;22.80;99.90;;;;;;5059854;28;19942;-69
2023/03/20 01:17:03;;;;;;;;;;;22.80;99.90;;;;;;5044356;28;19908;-70
2023/03/20 01:19:30;;;;;;;;;;;22.90;99.90;;;;;;5042675;28;19912;-70
2023/03/20 01:21:57;;;;;;;;;;;23.10;99.90;;;;;;5039195;28;19954;-67
2023/03/20 01:24:23;;;;;;;;;;;23.10;99.90;;;;;;5039166;28;19912;-69
2023/03/20 01:26:51;;;;;;;;;;;23.20;99.90;;;;;;5039466;28;19912;-70
2023/03/20 01:29:18;;;;;;;;;;;23.30;99.90;;;;;;5041137;28;19999;-70
2023/03/20 01:31:45;;;;;;;;;;;23.30;99.90;;;;;;5059870;28;19917;-70
2023/03/20 01:34:12;;;;;;;;;;;23.40;99.90;;;;;;5050045;28;19951;-68
2023/03/20 01:36:39;;;;;;;;;;;23.50;99.90;;;;;;5039186;28;19913;-69
2023/03/20 01:39:06;;;;;;;;;;;23.50;99.90;;;;;;5038627;28;19916;-67
2023/03/20 01:41:32;;;;;;;;;;;23.70;99.90;;;;;;5034775;28;19921;-67
2023/03/20 01:44:17;;;;;;;;;;;23.80;99.90;;;;;;5028378;28;19921;-71
2023/03/20 01:46:44;;;;;;;;;;;23.90;99.90;;;;;;5037987;28;19927;-68
2023/03/20 01:49:20;;;;;;;;;;;24.10;99.90;;;;;;5039034;28;19913;-67
2023/03/20 01:51:47;;;;;;;;;;;24.20;99.90;;;;;;5043921;28;19917;-68
2023/03/20 01:54:13;;;;;;;;;;;24.20;99.90;;;;;;5038110;28;19912;-67
2023/03/20 01:56:51;;;;;;;;;;;24.20;99.90;;;;;;5041507;28;19913;-70
2023/03/20 01:59:24;;;;;;;;;;;24.00;99.90;;;;;;5042272;28;19928;-68
2023/03/20 02:01:51;;;;;;;;;;;23.80;99.90;;;;;;5042580;28;19974;-68
2023/03/20 02:04:18;;;;;;;;;;;23.70;99.90;;;;;;5046646;28;19924;-69
2023/03/20 02:06:45;;;;;;;;;;;23.90;99.90;;;;;;5041758;28;20317;-70
2023/03/20 02:09:12;;;;;;;;;;;24.00;99.90;;;;;;5042856;28;19913;-73
2023/03/20 02:11:39;;;;;;;;;;;24.10;99.90;;;;;;5049364;28;19924;-71
2023/03/20 02:14:06;;;;;;;;;;;24.20;99.90;;;;;;5039774;28;20361;-69
2023/03/20 02:16:32;;;;;;;;;;;24.20;99.90;;;;;;5041733;28;19912;-68
2023/03/20 02:18:59;;;;;;;;;;;24.50;99.90;;;;;;5041526;28;19913;-69
2023/03/20 02:21:44;;;;;;;;;;;24.60;99.90;;;;;;5057428;28;19912;-68
2023/03/20 02:24:29;;;;;;;;;;;24.70;99.90;;;;;;5044042;28;19912;-69
2023/03/20 02:27:28;;;;;;;;;;;24.60;99.90;;;;;;5041440;28;20381;-70
2023/03/20 02:29:54;;;;;;;;;;;24.60;99.90;;;;;;5023511;28;19920;-69
2023/03/20 02:32:39;;;;;;;;;;;24.70;99.90;;;;;;5052491;28;19913;-70
2023/03/20 02:35:06;;;;;;;;;;;24.80;99.90;;;;;;5042273;28;19912;-70
2023/03/20 02:37:51;;;;;;;;;;;24.70;99.90;;;;;;5041103;28;19917;-70
2023/03/20 02:40:24;;;;;;;;;;;24.80;99.90;;;;;;5040696;28;19951;-69
2023/03/20 02:42:56;;;;;;;;;;;24.80;99.90;;;;;;5041742;28;19909;-69
2023/03/20 02:45:25;;;;;;;;;;;24.60;99.90;;;;;;5041905;28;20400;-70
2023/03/20 02:47:52;;;;;;;;;;;24.50;99.90;;;;;;5040930;28;20003;-68
2023/03/20 02:50:33;;;;;;;;;;;24.40;99.90;;;;;;5048557;28;19916;-69
2023/03/20 02:53:05;;;;;;;;;;;24.50;99.90;;;;;;5048154;28;19912;-69
2023/03/20 02:55:42;;;;;;;;;;;24.50;99.90;;;;;;5039760;28;20378;-68
2023/03/20 02:58:32;;;;;;;;;;;24.80;99.90;;;;;;5039729;28;19917;-67
2023/03/20 03:01:08;;;;;;;;;;;24.80;99.90;;;;;;5047169;28;19916;-69
2023/03/20 03:03:40;;;;;;;;;;;24.70;99.90;;;;;;5045138;28;20268;-70
2023/03/20 03:06:13;;;;;;;;;;;24.60;99.90;;;;;;5033648;28;19920;-66
2023/03/20 03:08:43;;;;;;;;;;;24.50;99.90;;;;;;5039794;28;19920;-66
2023/03/20 03:11:10;;;;;;;;;;;24.50;99.90;;;;;;5053669;28;19927;-66
2023/03/20 03:13:39;;;;;;;;;;;24.60;99.90;;;;;;5043079;28;20401;-69
2023/03/20 03:16:09;;;;;;;;;;;24.70;99.90;;;;;;5038819;28;19913;-68
2023/03/20 03:18:37;;;;;;;;;;;24.60;99.90;;;;;;5041203;28;20182;-69
2023/03/20 03:21:06;;;;;;;;;;;24.60;99.90;;;;;;5052220;28;19912;-70
2023/03/20 03:23:39;;;;;;;;;;;24.60;99.90;;;;;;5042179;28;19920;-70
2023/03/20 03:26:07;;;;;;;;;;;24.60;99.90;;;;;;5038292;28;19913;-69
2023/03/20 03:28:39;;;;;;;;;;;24.60;99.90;;;;;;5041034;28;20329;-68
2023/03/20 03:31:07;;;;;;;;;;;24.50;99.90;;;;;;5052338;28;19917;-67
2023/03/20 03:33:36;;;;;;;;;;;24.50;99.90;;;;;;5050246;28;19920;-69
2023/03/20 03:36:09;;;;;;;;;;;24.40;99.90;;;;;;5039999;28;19917;-69
2023/03/20 03:38:43;;;;;;;;;;;24.30;99.90;;;;;;5040829;28;19912;-71
2023/03/20 03:41:42;;;;;;;;;;;24.20;99.90;;;;;;5047006;28;19960;-71
2023/03/20 03:44:21;;;;;;;;;;;24.30;99.90;;;;;;5025745;28;19952;-69
2023/03/20 03:46:59;;;;;;;;;;;24.30;99.90;;;;;;5035903;28;20290;-69
2023/03/20 03:49:32;;;;;;;;;;;24.30;99.90;;;;;;5039106;28;19985;-67
2023/03/20 03:52:04;;;;;;;;;;;24.20;99.90;;;;;;5036069;28;20348;-67
2023/03/20 03:54:45;;;;;;;;;;;24.20;99.90;;;;;;5039865;28;19920;-68
2023/03/20 03:57:13;;;;;;;;;;;24.20;99.90;;;;;;5038784;28;20288;-68
2023/03/20 03:59:41;;;;;;;;;;;24.20;99.90;;;;;;5041049;28;19913;-69
2023/03/20 04:02:08;;;;;;;;;;;24.20;99.90;;;;;;5036400;28;20000;-68
2023/03/20 04:04:36;;;;;;;;;;;24.10;99.90;;;;;;5040020;28;19928;-68
2023/03/20 04:07:03;;;;;;;;;;;23.90;99.90;;;;;;5031394;28;20366;-69
2023/03/20 04:09:30;;;;;;;;;;;23.80;99.90;;;;;;5039238;28;19950;-68
2023/03/20 04:11:56;;;;;;;;;;;23.70;99.90;;;;;;5056283;28;19943;-70
2023/03/20 04:14:23;;;;;;;;;;;23.70;99.90;;;;;;5039240;28;19913;-70
2023/03/20 04:16:50;;;;;;;;;;;23.70;99.90;;;;;;5039830;28;20061;-69
2023/03/20 04:19:16;;;;;;;;;;;23.60;99.90;;;;;;5037694;28;20393;-68
2023/03/20 04:21:44;;;;;;;;;;;23.60;99.90;;;;;;5039924;28;19931;-68
2023/03/20 04:24:11;;;;;;;;;;;23.60;99.90;;;;;;5038164;28;19913;-68
2023/03/20 04:26:38;;;;;;;;;;;23.60;99.90;;;;;;5038071;28;19920;-69
2023/03/20 04:29:05;;;;;;;;;;;23.80;99.90;;;;;;5038828;28;19916;-69
2023/03/20 04:31:32;;;;;;;;;;;23.90;99.90;;;;;;5046363;28;19924;-68
2023/03/20 04:33:58;;;;;;;;;;;23.90;99.90;;;;;;5039896;28;19920;-70
2023/03/20 04:36:25;;;;;;;;;;;23.90;99.90;;;;;;5039150;28;20395;-69
2023/03/20 04:38:52;;;;;;;;;;;23.90;99.90;;;;;;5039787;28;19948;-70
2023/03/20 04:41:19;;;;;;;;;;;23.90;99.90;;;;;;5033818;28;19960;-70
2023/03/20 04:43:46;;;;;;;;;;;23.80;99.90;;;;;;5035108;28;19991;-69
2023/03/20 04:46:13;;;;;;;;;;;23.90;99.90;;;;;;5037077;28;19917;-69
2023/03/20 04:48:40;;;;;;;;;;;23.90;99.90;;;;;;5037252;28;19913;-69
2023/03/20 04:51:06;;;;;;;;;;;23.80;99.90;;;;;;5036725;28;19920;-69
2023/03/20 04:53:33;;;;;;;;;;;23.80;99.90;;;;;;5038704;28;20286;-68
2023/03/20 04:56:00;;;;;;;;;;;23.80;99.90;;;;;;5039015;28;19931;-69
2023/03/20 04:58:26;;;;;;;;;;;23.90;99.90;;;;;;5037326;28;19935;-69
2023/03/20 05:00:53;;;;;;;;;;;23.90;99.90;;;;;;5038921;28;20384;-69
2023/03/20 05:03:19;;;;;;;;;;;23.90;99.90;;;;;;5036119;28;20419;-69
2023/03/20 05:05:46;;;;;;;;;;;24.00;99.90;;;;;;5038931;28;20594;-68
2023/03/20 05:08:13;;;;;;;;;;;23.90;99.90;;;;;;5032236;28;20324;-69
2023/03/20 05:10:39;;;;;;;;;;;23.90;99.90;;;;;;5038142;28;20321;-69
2023/03/20 05:13:06;;;;;;;;;;;23.80;99.90;;;;;;5038259;28;19908;-67
2023/03/20 05:15:33;;;;;;;;;;;24.00;99.90;;;;;;5038976;28;20365;-69
2023/03/20 05:18:00;;;;;;;;;;;23.80;99.90;;;;;;5037971;28;19928;-69
2023/03/20 05:20:26;;;;;;;;;;;23.90;99.90;;;;;;5037704;28;20007;-69
2023/03/20 05:22:53;;;;;;;;;;;23.80;99.90;;;;;;5037629;28;20251;-69
2023/03/20 05:25:19;;;;;;;;;;;23.60;99.90;;;;;;5038038;28;19916;-70
2023/03/20 05:27:46;;;;;;;;;;;23.40;99.90;;;;;;5037107;28;19913;-67
2023/03/20 05:30:14;;;;;;;;;;;23.40;99.90;;;;;;5038701;28;19970;-68
2023/03/20 05:32:42;;;;;;;;;;;23.30;99.90;;;;;;5041869;28;19924;-68
2023/03/20 05:35:09;;;;;;;;;;;23.20;99.90;;;;;;5041928;28;19920;-69
2023/03/20 05:37:36;;;;;;;;;;;23.10;99.90;;;;;;5043041;28;19911;-70
2023/03/20 05:40:03;;;;;;;;;;;23.10;99.90;;;;;;5041131;28;19928;-70
2023/03/20 05:42:30;;;;;;;;;;;23.20;99.90;;;;;;5041258;28;19948;-68
2023/03/20 05:44:56;;;;;;;;;;;23.10;99.90;;;;;;5042662;28;19913;-67
2023/03/20 05:47:23;;;;;;;;;;;23.10;99.90;;;;;;5041797;28;19916;-68
2023/03/20 05:49:50;;;;;;;;;;;23.10;99.90;;;;;;5041736;28;20016;-68
2023/03/20 05:52:16;;;;;;;;;;;23.00;99.90;;;;;;5040521;28;19909;-69
2023/03/20 05:54:43;;;;;;;;;;;23.00;99.90;;;;;;5042883;28;19978;-68
2023/03/20 05:57:09;;;;;;;;;;;23.10;99.90;;;;;;5074207;28;19916;-70
2023/03/20 05:59:36;;;;;;;;;;;23.20;99.90;;;;;;5041111;28;19919;-67
2023/03/20 06:02:03;;;;;;;;;;;23.20;99.90;;;;;;5039042;28;20018;-67
2023/03/20 06:04:30;;;;;;;;;;;23.30;99.90;;;;;;5041574;28;19956;-67
2023/03/20 06:06:57;;;;;;;;;;;23.30;99.90;;;;;;5070638;28;19912;-69
2023/03/20 06:09:23;;;;;;;;;;;23.40;99.90;;;;;;5042347;28;20318;-69
2023/03/20 06:11:50;;;;;;;;;;;23.50;99.90;;;;;;5028655;28;20562;-68
2023/03/20 06:14:17;;;;;;;;;;;23.50;99.90;;;;;;5037417;28;20369;-68
2023/03/20 06:16:43;;;;;;;;;;;23.50;99.90;;;;;;5041291;28;19909;-68
2023/03/20 06:19:10;;;;;;;;;;;23.50;99.90;;;;;;5042056;28;19992;-68
2023/03/20 06:21:37;;;;;;;;;;;23.50;99.90;;;;;;5040280;28;19943;-69
2023/03/20 06:24:04;;;;;;;;;;;23.50;99.00;;;;;;5043108;28;19916;-68
2023/03/20 06:26:30;;;;;;;;;;;23.50;99.30;;;;;;5039628;28;19916;-70
2023/03/20 06:28:57;;;;;;;;;;;23.60;98.70;;;;;;5039988;28;19923;-67
2023/03/20 06:31:24;;;;;;;;;;;23.50;98.90;;;;;;5041785;28;19917;-71
2023/03/20 06:33:51;;;;;;;;;;;23.50;98.80;;;;;;5041721;28;19916;-69
2023/03/20 06:36:18;;;;;;;;;;;23.60;98.60;;;;;;5038629;28;20804;-69
2023/03/20 06:38:44;;;;;;;;;;;23.50;98.00;;;;;;5029556;28;19908;-68
2023/03/20 06:41:11;;;;;;;;;;;23.50;98.30;;;;;;5038180;28;19921;-68
2023/03/20 06:43:38;;;;;;;;;;;23.40;97.80;;;;;;5040770;28;19963;-69
2023/03/20 06:46:06;;;;;;;;;;;23.40;97.60;;;;;;5039912;28;19913;-68
2023/03/20 06:48:32;;;;;;;;;;;23.40;97.80;;;;;;5042086;28;20422;-67
2023/03/20 06:50:59;;;;;;;;;;;23.50;98.40;;;;;;5039240;28;19921;-69
2023/03/20 06:53:26;;;;;;;;;;;23.50;97.90;;;;;;5041029;28;20012;-69
2023/03/20 06:55:53;;;;;;;;;;;23.50;97.50;;;;;;5047853;28;19915;-68
2023/03/20 06:58:20;;;;;;;;;;;23.40;97.70;;;;;;5062179;28;19912;-69
2023/03/20 07:00:46;;;;;;;;;;;23.40;97.70;;;;;;5039002;28;19920;-69
2023/03/20 07:03:14;;;;;;;;;;;23.40;98.00;;;;;;5030082;28;19913;-70
2023/03/20 07:05:41;;;;;;;;;;;23.30;97.60;;;;;;5033948;28;19917;-70
2023/03/20 07:08:08;;;;;;;;;;;23.30;97.80;;;;;;5042038;28;20091;-70
2023/03/20 07:10:34;;;;;;;;;;;23.20;97.90;;;;;;5041865;28;19913;-68
2023/03/20 07:13:01;;;;;;;;;;;23.20;97.90;;;;;;5040364;28;20358;-69
2023/03/20 07:15:28;;;;;;;;;;;23.20;97.80;;;;;;5040082;28;19919;-69
2023/03/20 07:17:56;;;;;;;;;;;23.10;97.90;;;;;;5040510;28;19932;-71
2023/03/20 07:20:22;;;;;;;;;;;23.10;97.90;;;;;;5041360;28;20350;-70
2023/03/20 07:22:49;;;;;;;;;;;23.10;98.10;;;;;;5039699;28;19970;-69
2023/03/20 07:25:16;;;;;;;;;;;23.10;98.50;;;;;;5038276;28;20046;-69
2023/03/20 07:27:49;;;;;;;;;;;23.00;98.60;;;;;;5040210;28;19919;-69
2023/03/20 07:30:16;;;;;;;;;;;23.00;98.60;;;;;;5036540;28;19921;-68
2023/03/20 07:32:44;;;;;;;;;;;23.00;98.60;;;;;;5041371;28;19912;-69
2023/03/20 07:35:12;;;;;;;;;;;22.90;98.70;;;;;;5041002;28;19905;-72
2023/03/20 07:37:38;;;;;;;;;;;22.90;98.80;;;;;;5039752;28;19916;-67
2023/03/20 07:40:05;;;;;;;;;;;22.90;98.90;;;;;;5038736;28;19913;-64
2023/03/20 07:42:32;;;;;;;;;;;23.00;99.10;;;;;;5035791;28;19921;-65
2023/03/20 07:44:59;;;;;;;;;;;22.90;99.40;;;;;;5037116;28;19917;-67
2023/03/20 07:47:25;;;;;;;;;;;22.90;99.60;;;;;;5029374;28;20369;-67
2023/03/20 07:49:52;;;;;;;;;;;23.00;99.70;;;;;;5038278;28;19913;-66
2023/03/20 07:52:19;;;;;;;;;;;23.00;99.60;;;;;;5037089;28;19917;-66
2023/03/20 07:54:45;;;;;;;;;;;22.90;99.70;;;;;;5040918;28;19909;-66
2023/03/20 07:57:12;;;;;;;;;;;22.90;99.50;;;;;;5040264;28;19913;-64
2023/03/20 07:59:39;;;;;;;;;;;22.90;99.50;;;;;;5038870;28;20036;-65
2023/03/20 08:02:05;;;;;;;;;;;22.90;99.60;;;;;;5039916;28;19910;-68
2023/03/20 08:04:32;;;;;;;;;;;22.90;99.60;;;;;;5071759;28;19909;-68
2023/03/20 08:06:59;;;;;;;;;;;22.80;99.50;;;;;;5040270;28;19955;-68
2023/03/20 08:09:25;;;;;;;;;;;22.80;99.80;;;;;;5039104;28;20362;-67
2023/03/20 08:11:52;;;;;;;;;;;22.80;99.90;;;;;;5040066;28;19923;-67
2023/03/20 08:14:19;;;;;;;;;;;22.80;99.90;;;;;;5040262;28;19924;-67
2023/03/20 08:16:45;;;;;;;;;;;22.80;99.80;;;;;;5039554;28;20155;-68
2023/03/20 08:19:12;;;;;;;;;;;22.80;99.90;;;;;;5039769;28;20000;-68
2023/03/20 08:21:39;;;;;;;;;;;22.80;99.90;;;;;;5039287;28;19908;-67
2023/03/20 08:24:06;;;;;;;;;;;22.80;99.90;;;;;;5039662;28;19908;-66
2023/03/20 08:26:33;;;;;;;;;;;22.80;99.90;;;;;;5040051;28;19951;-68
2023/03/20 08:29:01;;;;;;;;;;;22.80;99.90;;;;;;5038819;28;19964;-66
2023/03/20 08:31:27;;;;;;;;;;;22.80;99.90;;;;;;5039436;28;19920;-68
2023/03/20 08:33:55;;;;;;;;;;;22.80;99.90;;;;;;5039085;28;19913;-66
2023/03/20 08:36:22;;;;;;;;;;;22.80;99.90;;;;;;5039705;28;19915;-67
2023/03/20 08:38:49;;;;;;;;;;;22.70;99.90;;;;;;5039280;28;19991;-68
2023/03/20 08:41:18;;;;;;;;;;;22.70;99.90;;;;;;5039574;28;19921;-67
2023/03/20 08:43:46;;;;;;;;;;;22.70;99.90;;;;;;5038213;28;20190;-68
2023/03/20 08:46:16;;;;;;;;;;;22.70;99.90;;;;;;5038416;28;20212;-68
2023/03/20 08:48:43;;;;;;;;;;;22.60;99.90;;;;;;5039067;28;19913;-66
2023/03/20 08:51:10;;;;;;;;;;;22.60;99.90;;;;;;5039527;28;20428;-68
2023/03/20 08:53:36;;;;;;;;;;;22.50;99.90;;;;;;5040305;28;19909;-67
2023/03/20 08:56:03;;;;;;;;;;;22.50;99.90;;;;;;5038276;28;19916;-68
2023/03/20 08:58:30;;;;;;;;;;;22.40;99.90;;;;;;5039836;28;19920;-65
2023/03/20 09:00:59;;;;;;;;;;;22.30;99.90;;;;;;5038708;28;20259;-66
2023/03/20 09:03:26;;;;;;;;;;;22.30;99.90;;;;;;5038949;28;19913;-66
2023/03/20 09:05:53;;;;;;;;;;;22.30;99.90;;;;;;5038260;28;19913;-65
2023/03/20 09:08:19;;;;;;;;;;;22.20;99.90;;;;;;5038728;28;20589;-64
2023/03/20 09:10:47;;;;;;;;;;;22.30;99.90;;;;;;5037094;28;19920;-67
2023/03/20 09:13:14;;;;;;;;;;;22.20;99.90;;;;;;5038361;28;19920;-68
2023/03/20 09:15:41;;;;;;;;;;;22.20;99.90;;;;;;5040556;28;19915;-64
2023/03/20 09:18:08;;;;;;;;;;;22.10;99.90;;;;;;5037567;28;19913;-68
2023/03/20 09:20:35;;;;;;;;;;;22.20;99.90;;;;;;5039276;28;19913;-68
2023/03/20 09:23:01;;;;;;;;;;;22.20;99.90;;;;;;5037714;28;19928;-66
2023/03/20 09:25:28;;;;;;;;;;;22.20;99.90;;;;;;5039673;28;19908;-66
2023/03/20 09:27:55;;;;;;;;;;;22.30;99.90;;;;;;5038004;28;19978;-67
2023/03/20 09:30:22;;;;;;;;;;;22.30;99.90;;;;;;5037521;28;20317;-65
2023/03/20 09:32:49;;;;;;;;;;;22.30;99.90;;;;;;5038572;28;20019;-67
2023/03/20 09:35:16;;;;;;;;;;;22.40;99.90;;;;;;5037925;28;19996;-67
2023/03/20 09:37:43;;;;;;;;;;;22.20;99.90;;;;;;5035427;28;20302;-67
2023/03/20 09:40:26;;;;;;;;;;;22.10;99.90;;;;;;5036470;28;19947;-67
2023/03/20 09:42:53;;;;;;;;;;;22.00;99.90;;;;;;5035326;28;20018;-66
2023/03/20 09:45:35;;;;;;;;;;;22.00;99.90;;;;;;5038566;28;20381;-66
2023/03/20 09:48:06;;;;;;;;;;;22.00;99.90;;;;;;5037970;28;19923;-67
2023/03/20 09:50:35;;;;;;;;;;;21.90;99.90;;;;;;5039646;28;19913;-67
2023/03/20 09:53:05;;;;;;;;;;;21.90;99.90;;;;;;5038508;28;19925;-67
2023/03/20 09:55:34;;;;;;;;;;;21.90;99.90;;;;;;5038469;28;19913;-67
2023/03/20 09:58:03;;;;;;;;;;;21.80;99.90;;;;;;5038089;28;19909;-66
2023/03/20 10:00:32;;;;;;;;;;;21.80;99.90;;;;;;5039388;28;19913;-66
2023/03/20 10:03:06;;;;;;;;;;;21.70;99.90;;;;;;5037914;28;19921;-66
2023/03/20 10:05:36;;;;;;;;;;;21.60;99.90;;;;;;5039407;28;19999;-67
2023/03/20 10:08:04;;;;;;;;;;;21.60;99.90;;;;;;5038802;28;20507;-66
2023/03/20 10:10:37;;;;;;;;;;;21.60;99.90;;;;;;5039259;28;19917;-67
2023/03/20 10:13:17;;;;;;;;;;;21.70;99.90;;;;;;5038964;28;19944;-63
2023/03/20 10:15:48;;;;;;;;;;;21.70;99.90;;;;;;5039966;28;19917;-69
2023/03/20 10:18:34;;;;;;;;;;;21.80;99.90;;;;;;5039254;28;19913;-67
2023/03/20 10:21:06;;;;;;;;;;;21.80;99.90;;;;;;5042151;28;19999;-67
2023/03/20 10:23:35;;;;;;;;;;;21.80;99.90;;;;;;5043039;28;19936;-66
2023/03/20 10:26:21;;;;;;;;;;;21.90;99.90;;;;;;5041448;28;19913;-68
2023/03/20 10:28:57;;;;;;;;;;;21.80;99.90;;;;;;5043154;28;19955;-66
2023/03/20 10:31:33;;;;;;;;;;;21.80;99.90;;;;;;5041644;28;20393;-66
2023/03/20 10:34:15;;;;;;;;;;;21.80;99.90;;;;;;5042138;28;19979;-64
2023/03/20 10:36:46;;;;;;;;;;;21.80;99.90;;;;;;5043065;28;20281;-68
2023/03/20 10:39:18;;;;;;;;;;;21.80;99.90;;;;;;5041662;28;20409;-67
2023/03/20 10:41:53;;;;;;;;;;;21.70;99.90;;;;;;5043042;28;20593;-66
2023/03/20 10:44:39;;;;;;;;;;;21.70;99.90;;;;;;5040904;28;19919;-69
2023/03/20 10:47:08;;;;;;;;;;;21.70;99.90;;;;;;5041078;28;19920;-66
2023/03/20 10:49:35;;;;;;;;;;;21.70;99.90;;;;;;5041766;28;19909;-65
2023/03/20 10:52:03;;;;;;;;;;;21.70;99.90;;;;;;5042255;28;19926;-68
2023/03/20 10:54:35;;;;;;;;;;;21.70;99.90;;;;;;5041860;28;20004;-65
2023/03/20 10:57:03;;;;;;;;;;;21.80;99.90;;;;;;5040922;28;19909;-66
2023/03/20 10:59:39;;;;;;;;;;;21.80;99.90;;;;;;5041008;28;19935;-67
2023/03/20 11:02:12;;;;;;;;;;;21.80;99.90;;;;;;5041537;28;20707;-66
2023/03/20 11:04:39;;;;;;;;;;;21.70;99.90;;;;;;5041853;28;19923;-67
2023/03/20 11:07:22;;;;;;;;;;;21.70;99.90;;;;;;5039874;28;20003;-66
2023/03/20 11:10:18;;;;;;;;;;;21.60;99.90;;;;;;5043268;28;19908;-66
2023/03/20 11:12:49;;;;;;;;;;;21.70;99.90;;;;;;5042334;28;20358;-66
2023/03/20 11:15:28;;;;;;;;;;;21.60;99.90;;;;;;5041249;28;20000;-67
2023/03/20 11:17:56;;;;;;;;;;;21.60;99.90;;;;;;5042410;28;20007;-64
2023/03/20 11:20:24;;;;;;;;;;;21.60;99.90;;;;;;5039889;28;20504;-66
2023/03/20 11:22:57;;;;;;;;;;;21.60;99.90;;;;;;5042352;28;20014;-65
2023/03/20 11:25:28;;;;;;;;;;;21.60;99.90;;;;;;5040311;28;20037;-66
2023/03/20 11:27:55;;;;;;;;;;;21.60;99.90;;;;;;5041222;28;19912;-65
2023/03/20 11:30:22;;;;;;;;;;;21.50;99.90;;;;;;5039211;28;19919;-66
2023/03/20 11:32:50;;;;;;;;;;;21.50;99.90;;;;;;5041615;28;20385;-67
2023/03/20 11:35:35;;;;;;;;;;;21.40;99.90;;;;;;5040999;28;20106;-65
2023/03/20 11:38:15;;;;;;;;;;;21.40;99.90;;;;;;5041958;28;20000;-65
2023/03/20 11:40:42;;;;;;;;;;;21.40;99.90;;;;;;5040989;28;20576;-67
2023/03/20 11:43:13;;;;;;;;;;;21.40;99.90;;;;;;5041802;28;19912;-69
2023/03/20 11:45:42;;;;;;;;;;;21.40;99.90;;;;;;5039896;28;20619;-69
2023/03/20 11:48:19;;;;;;;;;;;21.30;99.90;;;;;;5041982;28;19912;-70
2023/03/20 11:51:06;;;;;;;;;;;21.20;99.90;;;;;;5040905;28;19917;-70
2023/03/20 11:53:55;;;;;;;;;;;21.20;99.90;;;;;;5039164;28;19916;-69
2023/03/20 11:56:23;;;;;;;;;;;21.10;99.90;;;;;;5040502;28;20362;-69
2023/03/20 11:58:59;;;;;;;;;;;21.00;99.90;;;;;;5041449;28;20281;-67
2023/03/20 12:01:27;;;;;;;;;;;21.00;99.90;;;;;;5040090;28;19916;-71
2023/03/20 12:03:59;;;;;;;;;;;20.90;99.90;;;;;;5041463;28;19908;-66
2023/03/20 12:06:27;;;;;;;;;;;20.90;99.90;;;;;;5040163;28;19952;-66
2023/03/20 12:08:59;;;;;;;;;;;20.90;99.90;;;;;;5040987;28;19919;-66
2023/03/20 12:11:38;;;;;;;;;;;20.90;99.90;;;;;;5039451;28;20297;-67
2023/03/20 12:14:07;;;;;;;;;;;20.80;99.90;;;;;;5041146;28;19917;-65
2023/03/20 12:16:35;;;;;;;;;;;20.80;99.90;;;;;;5038607;28;19913;-67
2023/03/20 12:19:09;;;;;;;;;;;20.70;99.90;;;;;;5041566;28;19921;-67
2023/03/20 12:21:35;;;;;;;;;;;20.60;99.90;;;;;;5038487;28;19912;-67
2023/03/20 12:24:21;;;;;;;;;;;20.60;99.90;;;;;;5041299;28;19935;-69
2023/03/20 12:26:53;;;;;;;;;;;20.60;99.90;;;;;;5040150;28;19909;-68
2023/03/20 12:29:23;;;;;;;;;;;20.60;99.90;;;;;;5039425;28;20381;-70
2023/03/20 12:31:59;;;;;;;;;;;20.50;99.90;;;;;;5039862;28;19963;-71
2023/03/20 12:34:29;;;;;;;;;;;20.50;99.90;;;;;;5039714;28;19916;-66
2023/03/20 12:36:56;;;;;;;;;;;20.40;99.90;;;;;;5041026;28;19962;-68
2023/03/20 12:39:24;;;;;;;;;;;20.40;99.90;;;;;;5039218;28;19932;-72
2023/03/20 12:41:51;;;;;;;;;;;20.40;99.90;;;;;;5055665;28;20509;-68
2023/03/20 12:44:38;;;;;;;;;;;20.30;99.90;;;;;;5040956;28;19909;-68
2023/03/20 12:47:23;;;;;;;;;;;20.20;99.90;;;;;;5040676;28;20054;-67
2023/03/20 12:49:59;;;;;;;;;;;20.20;99.90;;;;;;5020389;28;19913;-69
2023/03/20 12:52:26;;;;;;;;;;;20.20;99.90;;;;;;5019400;28;20374;-68
2023/03/20 12:54:59;;;;;;;;;;;20.20;99.90;;;;;;5020255;28;19944;-68
2023/03/20 12:57:31;;;;;;;;;;;20.10;99.90;;;;;;5019842;28;20000;-67
2023/03/20 13:00:15;;;;;;;;;;;20.10;99.90;;;;;;5020317;28;19932;-68
2023/03/20 13:02:56;;;;;;;;;;;20.10;99.90;;;;;;5036437;28;20314;-69
2023/03/20 13:05:32;;;;;;;;;;;20.10;99.90;;;;;;5039904;28;19923;-71
2023/03/20 13:07:59;;;;;;;;;;;20.00;99.90;;;;;;5039751;28;19913;-69
2023/03/20 13:10:34;;;;;;;;;;;20.00;99.90;;;;;;5039381;28;20270;-68
2023/03/20 13:13:17;;;;;;;;;;;19.90;99.90;;;;;;5040069;28;19917;-68
2023/03/20 13:16:02;;;;;;;;;;;19.90;99.90;;;;;;5037791;28;19966;-68
2023/03/20 13:18:40;;;;;;;;;;;19.90;99.90;;;;;;5038483;28;19919;-68
2023/03/20 13:21:09;;;;;;;;;;;19.90;99.90;;;;;;5040447;28;20003;-67
2023/03/20 13:24:02;;;;;;;;;;;19.80;99.90;;;;;;5039329;28;19913;-69
2023/03/20 13:26:45;;;;;;;;;;;19.80;99.90;;;;;;5038753;28;20289;-69
2023/03/20 13:29:38;;;;;;;;;;;19.80;99.90;;;;;;5039859;28;19913;-68
2023/03/20 13:32:13;;;;;;;;;;;19.80;99.90;;;;;;5039806;28;19921;-67
2023/03/20 13:34:49;;;;;;;;;;;19.70;99.90;;;;;;5039274;28;19994;-67
2023/03/20 13:37:34;;;;;;;;;;;19.60;99.90;;;;;;5039189;28;19909;-67
2023/03/20 13:40:19;;;;;;;;;;;19.60;99.90;;;;;;5039014;28;20268;-68
2023/03/20 13:42:46;;;;;;;;;;;19.60;99.90;;;;;;5038392;28;19917;-68
2023/03/20 13:45:32;;;;;;;;;;;19.60;99.90;;;;;;5040809;28;19909;-67
2023/03/20 13:48:01;;;;;;;;;;;19.60;99.90;;;;;;5019358;28;19963;-68
2023/03/20 13:50:38;;;;;;;;;;;19.60;99.90;;;;;;5021305;28;20285;-67
2023/03/20 13:53:13;;;;;;;;;;;19.60;99.90;;;;;;5023769;28;20290;-66
2023/03/20 13:56:00;;;;;;;;;;;19.60;99.90;;;;;;5038095;28;20271;-66
2023/03/20 13:58:52;;;;;;;;;;;19.60;99.90;;;;;;5043770;28;19913;-70
2023/03/20 14:01:31;;;;;;;;;;;19.50;99.90;;;;;;5043866;28;20391;-65
2023/03/20 14:03:58;;;;;;;;;;;19.50;99.90;;;;;;5041625;28;19912;-68
2023/03/20 14:06:30;;;;;;;;;;;19.60;99.90;;;;;;5035489;28;19963;-68
2023/03/20 14:08:58;;;;;;;;;;;19.50;99.90;;;;;;5042095;28;19916;-68
2023/03/20 14:11:34;;;;;;;;;;;19.70;99.90;;;;;;5043669;28;19923;-67
2023/03/20 14:14:04;;;;;;;;;;;19.70;99.90;;;;;;5042303;28;19913;-64
2023/03/20 14:16:30;;;;;;;;;;;19.60;99.90;;;;;;5043391;28;19909;-66
2023/03/20 14:19:08;;;;;;;;;;;19.60;99.90;;;;;;5041548;28;19912;-67
2023/03/20 14:21:35;;;;;;;;;;;19.70;99.90;;;;;;5042280;28;19921;-69
2023/03/20 14:24:04;;;;;;;;;;;19.70;99.90;;;;;;5042226;28;19940;-67
2023/03/20 14:26:35;;;;;;;;;;;19.60;99.90;;;;;;5043077;28;19920;-67
2023/03/20 14:29:18;;;;;;;;;;;19.60;99.90;;;;;;5042203;28;19908;-67
2023/03/20 14:31:47;;;;;;;;;;;19.70;99.90;;;;;;5042216;28;20382;-67
2023/03/20 14:34:16;;;;;;;;;;;19.70;99.90;;;;;;5042534;28;19948;-67